createdAt,value
2019-05-20T00:00:28.966Z,13.10
2019-05-20T00:01:15.273Z,13.10
2019-05-20T00:02:00.953Z,13.10
2019-05-20T00:02:46.654Z,13.20
2019-05-20T00:03:32.865Z,13.20
2019-05-20T00:04:18.593Z,13.10
2019-05-20T00:05:04.850Z,13.20
2019-05-20T00:05:50.927Z,13.20
2019-05-20T00:06:37.091Z,13.20
2019-05-20T00:07:23.499Z,13.20
2019-05-20T00:08:10.171Z,13.20
2019-05-20T00:08:56.771Z,13.20
2019-05-20T00:09:43.352Z,13.10
2019-05-20T00:10:30.128Z,13.10
2019-05-20T00:11:16.847Z,13.10
2019-05-20T00:12:02.989Z,13.10
2019-05-20T00:12:49.481Z,13.10
2019-05-20T00:13:35.563Z,13.10
2019-05-20T00:14:23.131Z,13.10
2019-05-20T00:15:09.740Z,13.20
2019-05-20T00:15:55.866Z,13.20
2019-05-20T00:16:42.351Z,13.10
2019-05-20T00:17:28.579Z,13.10
2019-05-20T00:18:14.706Z,13.10
2019-05-20T00:19:00.504Z,13.10
2019-05-20T00:19:46.230Z,13.10
2019-05-20T00:20:31.910Z,13.10
2019-05-20T00:21:17.612Z,13.10
2019-05-20T00:22:03.742Z,13.10
2019-05-20T00:22:49.381Z,13.10
2019-05-20T00:23:35.782Z,13.10
2019-05-20T00:24:22.321Z,13.10
2019-05-20T00:25:08.767Z,13.10
2019-05-20T00:25:55.003Z,13.10
2019-05-20T00:26:40.827Z,13.10
2019-05-20T00:27:26.626Z,13.10
2019-05-20T00:28:12.296Z,13.10
2019-05-20T00:28:58.143Z,13.10
2019-05-20T00:29:44.005Z,13.10
2019-05-20T00:30:30.182Z,13.10
2019-05-20T00:31:16.108Z,13.10
2019-05-20T00:32:02.031Z,13.10
2019-05-20T00:32:47.985Z,13.10
2019-05-20T00:33:34.194Z,13.10
2019-05-20T00:34:34.206Z,13.10
2019-05-20T00:35:08.305Z,13.10
2019-05-20T00:35:54.655Z,13.00
2019-05-20T00:36:41.085Z,13.00
2019-05-20T00:37:27.068Z,13.10
2019-05-20T00:38:13.467Z,13.00
2019-05-20T00:39:19.502Z,13.10
2019-05-20T00:40:06.323Z,13.10
2019-05-20T00:40:51.965Z,13.10
2019-05-20T00:41:37.949Z,13.00
2019-05-20T00:42:24.020Z,13.00
2019-05-20T00:43:09.987Z,13.00
2019-05-20T00:43:56.039Z,13.00
2019-05-20T00:44:42.136Z,13.00
2019-05-20T00:45:27.882Z,13.00
2019-05-20T00:46:13.840Z,13.00
2019-05-20T00:46:59.493Z,13.00
2019-05-20T00:47:45.259Z,13.00
2019-05-20T00:48:31.063Z,12.90
2019-05-20T00:49:17.320Z,12.90
2019-05-20T00:50:03.411Z,12.90
2019-05-20T00:50:49.249Z,12.90
2019-05-20T00:51:35.360Z,12.90
2019-05-20T00:52:20.979Z,12.90
2019-05-20T00:53:06.704Z,12.90
2019-05-20T00:53:52.688Z,12.90
2019-05-20T00:54:38.632Z,12.90
2019-05-20T00:55:27.953Z,12.80
2019-05-20T00:56:13.847Z,12.80
2019-05-20T00:56:59.990Z,12.80
2019-05-20T00:57:46.190Z,12.80
2019-05-20T00:58:32.452Z,12.80
2019-05-20T00:59:18.115Z,12.80
2019-05-20T01:00:04.755Z,12.80
2019-05-20T01:00:50.570Z,12.80
2019-05-20T01:01:36.903Z,12.80
2019-05-20T01:02:22.715Z,12.80
2019-05-20T01:03:09.245Z,12.80
2019-05-20T01:03:55.587Z,12.80
2019-05-20T01:04:41.733Z,12.80
2019-05-20T01:05:28.185Z,12.80
2019-05-20T01:06:14.531Z,12.80
2019-05-20T01:07:00.779Z,12.80
2019-05-20T01:07:47.417Z,12.80
2019-05-20T01:08:33.621Z,12.80
2019-05-20T01:09:20.247Z,12.80
2019-05-20T01:10:07.058Z,12.70
2019-05-20T01:10:53.444Z,12.70
2019-05-20T01:11:40.277Z,12.70
2019-05-20T01:12:27.492Z,12.70
2019-05-20T01:13:13.871Z,12.80
2019-05-20T01:14:00.605Z,12.70
2019-05-20T01:14:46.909Z,12.70
2019-05-20T01:15:33.399Z,12.80
2019-05-20T01:16:19.611Z,12.80
2019-05-20T01:17:05.235Z,12.80
2019-05-20T01:17:50.906Z,12.80
2019-05-20T01:18:36.719Z,12.80
2019-05-20T01:19:22.743Z,12.80
2019-05-20T01:20:09.046Z,12.80
2019-05-20T01:20:55.899Z,12.80
2019-05-20T01:21:42.071Z,12.90
2019-05-20T01:22:28.571Z,12.90
2019-05-20T01:23:14.940Z,12.90
2019-05-20T01:24:01.188Z,12.90
2019-05-20T01:24:47.147Z,13.00
2019-05-20T01:25:32.872Z,13.00
2019-05-20T01:26:19.213Z,13.00
2019-05-20T01:27:05.298Z,13.00
2019-05-20T01:27:51.532Z,13.00
2019-05-20T01:28:38.053Z,13.00
2019-05-20T01:29:24.206Z,13.10
2019-05-20T01:30:11.195Z,13.00
2019-05-20T01:30:57.857Z,13.10
2019-05-20T01:31:44.420Z,13.10
2019-05-20T01:32:30.850Z,13.10
2019-05-20T01:33:17.205Z,13.10
2019-05-20T01:34:03.702Z,13.10
2019-05-20T01:34:50.185Z,13.10
2019-05-20T01:35:36.099Z,13.10
2019-05-20T01:36:22.331Z,13.10
2019-05-20T01:37:08.783Z,13.10
2019-05-20T01:37:55.006Z,13.10
2019-05-20T01:38:41.400Z,13.20
2019-05-20T01:39:27.506Z,13.20
2019-05-20T01:40:14.705Z,13.20
2019-05-20T01:41:01.085Z,13.20
2019-05-20T01:41:47.397Z,13.20
2019-05-20T01:42:37.681Z,13.20
2019-05-20T01:43:23.699Z,13.20
2019-05-20T01:44:10.159Z,13.30
2019-05-20T01:44:56.742Z,13.30
2019-05-20T01:45:42.834Z,13.30
2019-05-20T01:46:28.756Z,13.30
2019-05-20T01:47:14.748Z,13.20
2019-05-20T01:48:00.724Z,13.30
2019-05-20T01:48:46.794Z,13.30
2019-05-20T01:49:33.080Z,13.30
2019-05-20T01:50:19.039Z,13.30
2019-05-20T01:51:05.237Z,13.30
2019-05-20T01:51:51.284Z,13.30
2019-05-20T01:52:37.710Z,13.30
2019-05-20T01:53:23.724Z,13.30
2019-05-20T01:54:09.851Z,13.40
2019-05-20T01:54:56.009Z,13.40
2019-05-20T01:55:41.969Z,13.40
2019-05-20T01:56:28.004Z,13.40
2019-05-20T01:57:14.333Z,13.40
2019-05-20T01:58:00.594Z,13.40
2019-05-20T01:58:46.251Z,13.40
2019-05-20T01:59:32.236Z,13.40
2019-05-20T02:00:18.315Z,13.40
2019-05-20T02:01:04.035Z,13.40
2019-05-20T02:01:49.911Z,13.40
2019-05-20T02:02:36.368Z,13.40
2019-05-20T02:03:31.860Z,13.40
2019-05-20T02:04:10.215Z,13.40
2019-05-20T02:04:56.249Z,13.40
2019-05-20T02:05:42.544Z,13.40
2019-05-20T02:06:28.357Z,13.50
2019-05-20T02:07:14.471Z,13.50
2019-05-20T02:08:00.793Z,13.50
2019-05-20T02:08:48.389Z,13.50
2019-05-20T02:09:34.789Z,13.50
2019-05-20T02:10:21.519Z,13.50
2019-05-20T02:11:07.589Z,13.50
2019-05-20T02:11:54.047Z,13.50
2019-05-20T02:12:40.594Z,13.50
2019-05-20T02:13:46.455Z,13.50
2019-05-20T02:14:37.288Z,13.50
2019-05-20T02:15:30.062Z,13.50
2019-05-20T02:16:17.018Z,13.50
2019-05-20T02:17:03.570Z,13.60
2019-05-20T02:17:50.317Z,13.60
2019-05-20T02:18:36.876Z,13.60
2019-05-20T02:19:23.598Z,13.60
2019-05-20T02:20:09.680Z,13.60
2019-05-20T02:20:55.943Z,13.60
2019-05-20T02:21:41.807Z,13.60
2019-05-20T02:22:27.620Z,13.60
2019-05-20T02:23:14.614Z,13.60
2019-05-20T02:24:00.863Z,13.60
2019-05-20T02:24:47.380Z,13.60
2019-05-20T02:25:33.691Z,13.60
2019-05-20T02:26:19.651Z,13.60
2019-05-20T02:27:05.667Z,13.60
2019-05-20T02:27:51.568Z,13.60
2019-05-20T02:28:37.510Z,13.60
2019-05-20T02:29:23.927Z,13.60
2019-05-20T02:30:10.236Z,13.60
2019-05-20T02:30:57.069Z,13.70
2019-05-20T02:31:43.341Z,13.70
2019-05-20T02:32:29.031Z,13.70
2019-05-20T02:33:14.774Z,13.70
2019-05-20T02:34:00.508Z,13.70
2019-05-20T02:34:46.837Z,13.70
2019-05-20T02:35:33.434Z,13.70
2019-05-20T02:36:19.592Z,13.70
2019-05-20T02:37:05.673Z,13.70
2019-05-20T02:37:52.743Z,13.70
2019-05-20T02:38:39.401Z,13.70
2019-05-20T02:39:26.820Z,13.70
2019-05-20T02:40:13.657Z,13.70
2019-05-20T02:41:00.428Z,13.70
2019-05-20T02:41:46.470Z,13.70
2019-05-20T02:42:32.837Z,13.70
2019-05-20T02:43:19.162Z,13.70
2019-05-20T02:44:05.307Z,13.70
2019-05-20T02:44:51.414Z,13.70
2019-05-20T02:45:37.092Z,13.70
2019-05-20T02:46:23.293Z,13.70
2019-05-20T02:47:08.932Z,13.80
2019-05-20T02:47:54.694Z,13.70
2019-05-20T02:48:40.542Z,13.80
2019-05-20T02:49:26.721Z,13.70
2019-05-20T02:50:12.996Z,13.70
2019-05-20T02:50:58.893Z,13.70
2019-05-20T02:51:44.906Z,13.70
2019-05-20T02:52:30.586Z,13.70
2019-05-20T02:53:16.311Z,13.70
2019-05-20T02:54:02.169Z,13.70
2019-05-20T02:54:48.615Z,13.80
2019-05-20T02:55:34.697Z,13.80
2019-05-20T02:56:20.950Z,13.80
2019-05-20T02:57:06.680Z,13.80
2019-05-20T02:57:52.814Z,13.80
2019-05-20T02:58:38.506Z,13.80
2019-05-20T02:59:24.213Z,13.80
2019-05-20T03:00:10.567Z,13.80
2019-05-20T03:00:56.752Z,13.90
2019-05-20T03:01:42.475Z,13.80
2019-05-20T03:02:28.629Z,13.90
2019-05-20T03:03:14.823Z,13.90
2019-05-20T03:04:11.383Z,13.90
2019-05-20T03:04:48.313Z,13.90
2019-05-20T03:05:34.012Z,13.90
2019-05-20T03:06:20.517Z,13.90
2019-05-20T03:07:06.398Z,13.90
2019-05-20T03:07:52.150Z,13.90
2019-05-20T03:08:38.399Z,13.90
2019-05-20T03:09:24.693Z,13.90
2019-05-20T03:10:11.157Z,13.90
2019-05-20T03:10:56.948Z,13.90
2019-05-20T03:11:43.266Z,13.90
2019-05-20T03:12:29.068Z,13.90
2019-05-20T03:13:15.317Z,13.90
2019-05-20T03:14:01.221Z,13.90
2019-05-20T03:14:47.115Z,13.90
2019-05-20T03:15:32.774Z,13.90
2019-05-20T03:16:18.955Z,13.90
2019-05-20T03:17:04.644Z,13.90
2019-05-20T03:17:50.767Z,13.90
2019-05-20T03:18:36.416Z,13.90
2019-05-20T03:19:22.056Z,13.90
2019-05-20T03:20:07.834Z,13.90
2019-05-20T03:20:53.856Z,13.90
2019-05-20T03:21:39.583Z,13.90
2019-05-20T03:22:25.314Z,13.90
2019-05-20T03:23:11.125Z,13.90
2019-05-20T03:23:56.969Z,13.90
2019-05-20T03:24:42.662Z,13.90
2019-05-20T03:25:28.397Z,13.90
2019-05-20T03:26:14.354Z,13.90
2019-05-20T03:27:00.058Z,13.90
2019-05-20T03:27:45.828Z,13.90
2019-05-20T03:28:32.190Z,14.00
2019-05-20T03:29:18.186Z,14.00
2019-05-20T03:30:04.833Z,13.90
2019-05-20T03:30:50.786Z,13.90
2019-05-20T03:31:36.721Z,14.00
2019-05-20T03:32:23.315Z,14.00
2019-05-20T03:33:09.220Z,14.00
2019-05-20T03:33:55.724Z,14.00
2019-05-20T03:34:50.815Z,14.00
2019-05-20T03:35:30.952Z,14.00
2019-05-20T03:36:17.515Z,14.00
2019-05-20T03:37:03.892Z,14.00
2019-05-20T03:37:50.547Z,14.00
2019-05-20T03:38:36.561Z,14.00
2019-05-20T03:39:22.599Z,14.00
2019-05-20T03:40:08.928Z,13.90
2019-05-20T03:40:55.113Z,13.90
2019-05-20T03:41:41.156Z,13.90
2019-05-20T03:42:26.966Z,13.90
2019-05-20T03:43:13.321Z,13.90
2019-05-20T03:43:59.599Z,13.90
2019-05-20T03:44:45.276Z,13.90
2019-05-20T03:45:30.977Z,13.90
2019-05-20T03:46:17.155Z,13.90
2019-05-20T03:47:03.351Z,13.90
2019-05-20T03:47:49.534Z,13.90
2019-05-20T03:48:35.426Z,14.00
2019-05-20T03:49:21.384Z,14.00
2019-05-20T03:50:07.689Z,14.00
2019-05-20T03:50:54.105Z,13.90
2019-05-20T03:51:39.989Z,14.00
2019-05-20T03:52:25.663Z,14.00
2019-05-20T03:53:11.318Z,14.00
2019-05-20T03:53:57.024Z,14.00
2019-05-20T03:54:42.824Z,14.00
2019-05-20T03:55:29.145Z,13.90
2019-05-20T03:56:15.617Z,13.90
2019-05-20T03:57:02.033Z,14.00
2019-05-20T03:57:48.221Z,13.90
2019-05-20T03:58:34.529Z,14.00
2019-05-20T03:59:20.938Z,14.00
2019-05-20T04:00:07.771Z,14.00
2019-05-20T04:00:54.256Z,14.00
2019-05-20T04:01:40.224Z,14.00
2019-05-20T04:02:26.389Z,14.00
2019-05-20T04:03:13.010Z,14.00
2019-05-20T04:03:58.629Z,14.00
2019-05-20T04:05:00.666Z,14.00
2019-05-20T04:05:32.236Z,14.00
2019-05-20T04:06:17.902Z,14.00
2019-05-20T04:07:04.067Z,14.00
2019-05-20T04:07:50.223Z,14.00
2019-05-20T04:08:35.841Z,14.00
2019-05-20T04:09:21.520Z,14.00
2019-05-20T04:10:07.850Z,14.00
2019-05-20T04:10:53.677Z,14.00
2019-05-20T04:11:40.299Z,14.10
2019-05-20T04:12:26.638Z,14.00
2019-05-20T04:13:12.716Z,14.10
2019-05-20T04:13:59.402Z,14.10
2019-05-20T04:14:45.859Z,14.10
2019-05-20T04:15:31.960Z,14.00
2019-05-20T04:16:17.810Z,14.10
2019-05-20T04:17:04.127Z,14.00
2019-05-20T04:17:50.460Z,14.00
2019-05-20T04:18:36.563Z,14.00
2019-05-20T04:19:22.690Z,14.00
2019-05-20T04:20:08.449Z,14.10
2019-05-20T04:20:54.323Z,14.10
2019-05-20T04:21:40.563Z,14.00
2019-05-20T04:22:26.806Z,14.00
2019-05-20T04:23:12.977Z,14.00
2019-05-20T04:24:01.416Z,14.10
2019-05-20T04:24:46.974Z,14.10
2019-05-20T04:25:33.439Z,14.10
2019-05-20T04:26:19.463Z,14.00
2019-05-20T04:27:05.155Z,14.00
2019-05-20T04:27:50.765Z,14.00
2019-05-20T04:28:36.413Z,14.00
2019-05-20T04:29:22.147Z,14.00
2019-05-20T04:30:08.736Z,14.00
2019-05-20T04:30:55.729Z,14.00
2019-05-20T04:31:43.228Z,14.00
2019-05-20T04:32:29.549Z,14.00
2019-05-20T04:33:15.601Z,14.10
2019-05-20T04:34:01.796Z,14.10
2019-05-20T04:34:47.968Z,14.10
2019-05-20T04:35:34.565Z,14.10
2019-05-20T04:36:21.020Z,14.00
2019-05-20T04:37:07.703Z,14.10
2019-05-20T04:37:54.137Z,14.10
2019-05-20T04:38:43.812Z,14.10
2019-05-20T04:39:30.282Z,14.10
2019-05-20T04:40:16.708Z,14.00
2019-05-20T04:41:02.875Z,14.10
2019-05-20T04:41:49.514Z,14.00
2019-05-20T04:42:36.138Z,14.10
2019-05-20T04:43:22.719Z,14.10
2019-05-20T04:44:09.202Z,14.00
2019-05-20T04:44:55.566Z,14.10
2019-05-20T04:45:41.841Z,14.10
2019-05-20T04:46:28.320Z,14.10
2019-05-20T04:47:15.729Z,14.10
2019-05-20T04:48:02.138Z,14.10
2019-05-20T04:48:48.282Z,14.10
2019-05-20T04:49:35.702Z,14.10
2019-05-20T04:50:22.127Z,14.10
2019-05-20T04:51:08.183Z,14.20
2019-05-20T04:51:55.544Z,14.20
2019-05-20T04:52:41.983Z,14.20
2019-05-20T04:53:28.363Z,14.20
2019-05-20T04:54:14.696Z,14.20
2019-05-20T04:55:00.672Z,14.20
2019-05-20T04:55:46.819Z,14.20
2019-05-20T04:56:32.552Z,14.20
2019-05-20T04:57:18.563Z,14.20
2019-05-20T04:58:05.158Z,14.20
2019-05-20T04:58:51.414Z,14.20
2019-05-20T04:59:37.401Z,14.20
2019-05-20T05:00:53.115Z,14.20
2019-05-20T05:01:39.488Z,14.20
2019-05-20T05:02:26.096Z,14.30
2019-05-20T05:03:12.438Z,14.30
2019-05-20T05:03:58.877Z,14.30
2019-05-20T05:04:45.512Z,14.20
2019-05-20T05:05:37.804Z,14.20
2019-05-20T05:06:19.826Z,14.30
2019-05-20T05:07:05.995Z,14.30
2019-05-20T05:07:52.121Z,14.30
2019-05-20T05:08:38.360Z,14.20
2019-05-20T05:09:24.867Z,14.30
2019-05-20T05:10:11.284Z,14.30
2019-05-20T05:10:57.333Z,14.30
2019-05-20T05:11:43.471Z,14.30
2019-05-20T05:12:29.667Z,14.40
2019-05-20T05:13:15.879Z,14.40
2019-05-20T05:14:02.352Z,14.40
2019-05-20T05:14:48.571Z,14.30
2019-05-20T05:15:35.212Z,14.20
2019-05-20T05:16:22.279Z,14.20
2019-05-20T05:17:08.700Z,14.20
2019-05-20T05:17:55.140Z,14.20
2019-05-20T05:18:41.036Z,14.30
2019-05-20T05:19:27.722Z,14.30
2019-05-20T05:20:18.240Z,14.30
2019-05-20T05:21:02.472Z,14.30
2019-05-20T05:21:48.433Z,14.30
2019-05-20T05:22:34.148Z,14.30
2019-05-20T05:23:20.982Z,14.30
2019-05-20T05:24:06.907Z,14.40
2019-05-20T05:24:53.138Z,14.40
2019-05-20T05:25:39.463Z,14.40
2019-05-20T05:26:25.510Z,14.40
2019-05-20T05:27:11.699Z,14.40
2019-05-20T05:27:57.411Z,14.30
2019-05-20T05:28:43.707Z,14.30
2019-05-20T05:29:29.718Z,14.30
2019-05-20T05:30:15.987Z,14.30
2019-05-20T05:31:01.934Z,14.30
2019-05-20T05:31:48.197Z,14.40
2019-05-20T05:32:41.240Z,14.40
2019-05-20T05:33:27.186Z,14.40
2019-05-20T05:34:12.976Z,14.40
2019-05-20T05:34:59.175Z,14.40
2019-05-20T05:35:53.388Z,14.40
2019-05-20T05:36:33.243Z,14.40
2019-05-20T05:37:20.169Z,14.40
2019-05-20T05:38:06.382Z,14.40
2019-05-20T05:38:52.768Z,14.40
2019-05-20T05:39:38.906Z,14.40
2019-05-20T05:40:29.081Z,14.40
2019-05-20T05:41:15.175Z,14.40
2019-05-20T05:42:01.235Z,14.40
2019-05-20T05:42:47.268Z,14.40
2019-05-20T05:43:33.406Z,14.50
2019-05-20T05:44:19.951Z,14.50
2019-05-20T05:45:06.756Z,14.50
2019-05-20T05:45:52.687Z,14.50
2019-05-20T05:46:38.924Z,14.50
2019-05-20T05:47:25.201Z,14.50
2019-05-20T05:48:11.240Z,14.50
2019-05-20T05:48:57.390Z,14.40
2019-05-20T05:49:43.474Z,14.40
2019-05-20T05:50:29.660Z,14.40
2019-05-20T05:51:15.697Z,14.40
2019-05-20T05:52:02.039Z,14.40
2019-05-20T05:52:47.926Z,14.40
2019-05-20T05:53:34.324Z,14.50
2019-05-20T05:54:20.504Z,14.50
2019-05-20T05:55:06.984Z,14.50
2019-05-20T05:55:53.342Z,14.50
2019-05-20T05:56:39.776Z,14.50
2019-05-20T05:57:26.226Z,14.50
2019-05-20T05:58:12.687Z,14.50
2019-05-20T05:58:59.185Z,14.50
2019-05-20T05:59:45.377Z,14.50
2019-05-20T06:00:31.131Z,14.50
2019-05-20T06:01:16.832Z,14.50
2019-05-20T06:02:02.568Z,14.50
2019-05-20T06:02:48.371Z,14.50
2019-05-20T06:03:34.328Z,14.50
2019-05-20T06:04:20.942Z,14.50
2019-05-20T06:05:07.135Z,14.50
2019-05-20T06:06:10.331Z,14.50
2019-05-20T06:06:41.712Z,14.50
2019-05-20T06:07:28.323Z,14.50
2019-05-20T06:08:14.746Z,14.50
2019-05-20T06:09:00.614Z,14.50
2019-05-20T06:09:46.589Z,14.50
2019-05-20T06:10:35.726Z,14.60
2019-05-20T06:11:20.845Z,14.60
2019-05-20T06:12:06.806Z,14.60
2019-05-20T06:12:52.915Z,14.60
2019-05-20T06:13:38.875Z,14.60
2019-05-20T06:14:24.841Z,14.60
2019-05-20T06:15:11.563Z,14.60
2019-05-20T06:15:57.827Z,14.60
2019-05-20T06:16:43.756Z,14.60
2019-05-20T06:17:30.148Z,14.60
2019-05-20T06:18:16.255Z,14.60
2019-05-20T06:19:02.721Z,14.50
2019-05-20T06:19:49.306Z,14.60
2019-05-20T06:20:35.447Z,14.60
2019-05-20T06:21:21.165Z,14.60
2019-05-20T06:22:06.915Z,14.60
2019-05-20T06:22:52.610Z,14.60
2019-05-20T06:23:38.771Z,14.60
2019-05-20T06:24:25.524Z,14.60
2019-05-20T06:25:12.513Z,14.60
2019-05-20T06:25:58.633Z,14.60
2019-05-20T06:26:44.945Z,14.60
2019-05-20T06:27:31.068Z,14.60
2019-05-20T06:28:17.283Z,14.60
2019-05-20T06:29:03.522Z,14.60
2019-05-20T06:29:49.535Z,14.60
2019-05-20T06:30:38.661Z,14.70
2019-05-20T06:31:24.576Z,14.70
2019-05-20T06:32:10.450Z,14.70
2019-05-20T06:32:56.672Z,14.70
2019-05-20T06:33:42.685Z,14.70
2019-05-20T06:34:28.894Z,14.60
2019-05-20T06:35:15.403Z,14.60
2019-05-20T06:36:01.359Z,14.60
2019-05-20T06:36:49.745Z,14.60
2019-05-20T06:37:37.915Z,14.60
2019-05-20T06:38:43.702Z,14.60
2019-05-20T06:39:29.814Z,14.70
2019-05-20T06:40:16.184Z,14.70
2019-05-20T06:41:02.046Z,14.70
2019-05-20T06:41:48.135Z,14.70
2019-05-20T06:42:34.288Z,14.70
2019-05-20T06:43:20.265Z,14.70
2019-05-20T06:44:06.388Z,14.70
2019-05-20T06:44:56.514Z,14.70
2019-05-20T06:45:40.509Z,14.70
2019-05-20T06:46:26.571Z,14.70
2019-05-20T06:47:12.652Z,14.60
2019-05-20T06:47:58.816Z,14.70
2019-05-20T06:48:45.294Z,14.70
2019-05-20T06:49:31.293Z,14.70
2019-05-20T06:50:17.660Z,14.70
2019-05-20T06:51:03.715Z,14.80
2019-05-20T06:51:49.864Z,14.80
2019-05-20T06:52:36.398Z,14.80
2019-05-20T06:53:22.857Z,14.80
2019-05-20T06:54:08.852Z,14.80
2019-05-20T06:54:54.836Z,14.80
2019-05-20T06:55:40.937Z,14.80
2019-05-20T06:56:27.285Z,14.80
2019-05-20T06:57:13.277Z,14.80
2019-05-20T06:57:59.403Z,14.80
2019-05-20T06:58:45.542Z,14.90
2019-05-20T06:59:31.545Z,14.90
2019-05-20T07:00:31.990Z,14.90
2019-05-20T07:01:18.072Z,14.90
2019-05-20T07:02:04.014Z,14.90
2019-05-20T07:02:52.121Z,14.90
2019-05-20T07:03:41.259Z,14.80
2019-05-20T07:04:27.387Z,14.80
2019-05-20T07:05:13.715Z,14.80
2019-05-20T07:05:59.634Z,14.90
2019-05-20T07:06:47.545Z,14.90
2019-05-20T07:07:33.182Z,14.80
2019-05-20T07:08:19.367Z,14.80
2019-05-20T07:09:05.418Z,14.80
2019-05-20T07:09:51.418Z,14.90
2019-05-20T07:10:37.174Z,14.90
2019-05-20T07:11:23.244Z,14.90
2019-05-20T07:12:09.501Z,14.90
2019-05-20T07:12:55.500Z,14.80
2019-05-20T07:13:41.897Z,14.80
2019-05-20T07:14:31.361Z,14.80
2019-05-20T07:15:17.393Z,14.80
2019-05-20T07:16:03.287Z,14.80
2019-05-20T07:16:49.020Z,14.80
2019-05-20T07:17:35.193Z,14.80
2019-05-20T07:18:21.556Z,14.90
2019-05-20T07:19:07.279Z,14.90
2019-05-20T07:19:53.464Z,14.90
2019-05-20T07:20:39.993Z,14.90
2019-05-20T07:21:26.806Z,14.90
2019-05-20T07:22:13.342Z,14.90
2019-05-20T07:22:59.479Z,14.90
2019-05-20T07:23:45.460Z,14.90
2019-05-20T07:24:32.082Z,14.90
2019-05-20T07:25:18.081Z,14.90
2019-05-20T07:26:04.039Z,15.00
2019-05-20T07:26:49.671Z,14.90
2019-05-20T07:27:35.355Z,15.00
2019-05-20T07:28:21.110Z,15.00
2019-05-20T07:29:07.263Z,15.00
2019-05-20T07:29:52.975Z,15.00
2019-05-20T07:30:39.147Z,15.00
2019-05-20T07:31:25.485Z,15.00
2019-05-20T07:32:11.578Z,15.00
2019-05-20T07:32:59.456Z,15.10
2019-05-20T07:33:45.412Z,15.00
2019-05-20T07:34:31.092Z,15.00
2019-05-20T07:35:29.658Z,15.10
2019-05-20T07:36:04.440Z,15.10
2019-05-20T07:37:02.422Z,15.10
2019-05-20T07:37:38.059Z,15.10
2019-05-20T07:38:24.301Z,15.10
2019-05-20T07:39:10.085Z,15.10
2019-05-20T07:39:56.339Z,15.10
2019-05-20T07:40:42.110Z,15.10
2019-05-20T07:41:28.549Z,15.10
2019-05-20T07:42:14.741Z,15.00
2019-05-20T07:43:01.151Z,15.10
2019-05-20T07:43:47.087Z,15.10
2019-05-20T07:44:32.864Z,15.10
2019-05-20T07:45:18.920Z,15.10
2019-05-20T07:46:05.270Z,15.00
2019-05-20T07:46:51.511Z,15.00
2019-05-20T07:47:37.744Z,15.00
2019-05-20T07:48:23.877Z,15.00
2019-05-20T07:49:10.250Z,15.10
2019-05-20T07:49:56.196Z,15.10
2019-05-20T07:50:42.975Z,15.10
2019-05-20T07:51:29.728Z,15.10
2019-05-20T07:52:15.963Z,15.10
2019-05-20T07:53:02.794Z,15.20
2019-05-20T07:53:49.464Z,15.20
2019-05-20T07:54:35.591Z,15.20
2019-05-20T07:55:24.547Z,15.20
2019-05-20T07:56:15.083Z,15.20
2019-05-20T07:57:04.668Z,15.20
2019-05-20T07:57:53.057Z,15.20
2019-05-20T07:58:42.114Z,15.20
2019-05-20T07:59:29.204Z,15.20
2019-05-20T08:00:15.824Z,15.30
2019-05-20T08:01:02.063Z,15.30
2019-05-20T08:01:48.484Z,15.30
2019-05-20T08:02:35.346Z,15.30
2019-05-20T08:03:23.312Z,15.30
2019-05-20T08:04:09.509Z,15.30
2019-05-20T08:04:55.329Z,15.30
2019-05-20T08:05:41.587Z,15.30
2019-05-20T08:06:27.206Z,15.40
2019-05-20T08:07:27.623Z,15.40
2019-05-20T08:08:01.229Z,15.40
2019-05-20T08:08:47.268Z,15.40
2019-05-20T08:09:32.945Z,15.40
2019-05-20T08:10:19.353Z,15.40
2019-05-20T08:11:05.198Z,15.40
2019-05-20T08:11:51.109Z,15.40
2019-05-20T08:12:37.288Z,15.30
2019-05-20T08:13:22.904Z,15.30
2019-05-20T08:14:09.117Z,15.30
2019-05-20T08:14:55.753Z,15.30
2019-05-20T08:15:42.091Z,15.40
2019-05-20T08:16:28.561Z,15.40
2019-05-20T08:17:15.141Z,15.30
2019-05-20T08:18:01.748Z,15.30
2019-05-20T08:18:48.135Z,15.30
2019-05-20T08:19:34.690Z,15.40
2019-05-20T08:20:21.047Z,15.40
2019-05-20T08:21:07.296Z,15.40
2019-05-20T08:21:53.086Z,15.40
2019-05-20T08:22:39.685Z,15.40
2019-05-20T08:23:26.264Z,15.40
2019-05-20T08:24:12.119Z,15.40
2019-05-20T08:24:57.907Z,15.40
2019-05-20T08:25:44.006Z,15.40
2019-05-20T08:26:30.144Z,15.40
2019-05-20T08:27:17.513Z,15.40
2019-05-20T08:28:04.008Z,15.40
2019-05-20T08:28:50.205Z,15.30
2019-05-20T08:29:36.214Z,15.40
2019-05-20T08:30:30.779Z,15.30
2019-05-20T08:31:16.705Z,15.30
2019-05-20T08:32:02.436Z,15.30
2019-05-20T08:32:48.363Z,15.30
2019-05-20T08:33:34.297Z,15.30
2019-05-20T08:34:20.450Z,15.40
2019-05-20T08:35:06.765Z,15.40
2019-05-20T08:35:52.512Z,15.40
2019-05-20T08:36:38.125Z,15.50
2019-05-20T08:37:23.843Z,15.50
2019-05-20T08:38:09.636Z,15.50
2019-05-20T08:38:55.712Z,15.50
2019-05-20T08:39:41.413Z,15.60
2019-05-20T08:40:27.362Z,15.60
2019-05-20T08:41:13.931Z,15.60
2019-05-20T08:42:00.472Z,15.60
2019-05-20T08:42:46.565Z,15.50
2019-05-20T08:43:32.408Z,15.50
2019-05-20T08:44:18.575Z,15.50
2019-05-20T08:45:05.251Z,15.50
2019-05-20T08:45:51.163Z,15.60
2019-05-20T08:46:36.962Z,15.60
2019-05-20T08:47:23.248Z,15.60
2019-05-20T08:48:09.909Z,15.70
2019-05-20T08:48:56.026Z,15.70
2019-05-20T08:49:42.446Z,15.70
2019-05-20T08:50:29.113Z,15.70
2019-05-20T08:51:15.433Z,15.80
2019-05-20T08:52:01.892Z,15.70
2019-05-20T08:52:48.052Z,15.70
2019-05-20T08:53:34.195Z,15.70
2019-05-20T08:54:19.904Z,15.70
2019-05-20T08:55:05.668Z,15.70
2019-05-20T08:55:51.491Z,15.70
2019-05-20T08:56:37.689Z,15.70
2019-05-20T08:57:23.343Z,15.80
2019-05-20T08:58:09.676Z,15.80
2019-05-20T08:58:55.495Z,15.80
2019-05-20T08:59:41.569Z,15.80
2019-05-20T09:00:27.332Z,15.80
2019-05-20T09:01:13.254Z,15.80
2019-05-20T09:01:59.434Z,15.70
2019-05-20T09:02:45.199Z,15.80
2019-05-20T09:03:30.986Z,15.80
2019-05-20T09:04:17.199Z,15.80
2019-05-20T09:05:03.765Z,15.80
2019-05-20T09:05:49.932Z,15.80
2019-05-20T09:06:35.899Z,15.80
2019-05-20T09:07:21.677Z,15.80
2019-05-20T09:08:07.834Z,15.90
2019-05-20T09:08:53.828Z,15.80
2019-05-20T09:09:40.101Z,15.80
2019-05-20T09:10:26.243Z,15.70
2019-05-20T09:11:12.170Z,15.70
2019-05-20T09:11:58.331Z,15.70
2019-05-20T09:12:44.192Z,15.80
2019-05-20T09:13:30.432Z,15.80
2019-05-20T09:14:16.401Z,15.70
2019-05-20T09:15:03.185Z,15.80
2019-05-20T09:15:49.347Z,15.70
2019-05-20T09:16:35.395Z,15.70
2019-05-20T09:17:21.896Z,15.80
2019-05-20T09:18:07.971Z,15.80
2019-05-20T09:18:55.680Z,15.80
2019-05-20T09:19:42.191Z,15.70
2019-05-20T09:20:28.349Z,15.70
2019-05-20T09:21:14.802Z,15.70
2019-05-20T09:22:01.335Z,15.80
2019-05-20T09:22:47.958Z,15.80
2019-05-20T09:23:34.697Z,15.80
2019-05-20T09:24:21.330Z,15.80
2019-05-20T09:25:08.265Z,15.90
2019-05-20T09:25:54.546Z,15.90
2019-05-20T09:26:40.370Z,15.90
2019-05-20T09:27:26.449Z,15.90
2019-05-20T09:28:12.628Z,15.80
2019-05-20T09:28:58.842Z,15.80
2019-05-20T09:29:44.980Z,15.80
2019-05-20T09:30:31.204Z,15.90
2019-05-20T09:31:18.479Z,15.90
2019-05-20T09:32:04.678Z,15.90
2019-05-20T09:32:51.733Z,15.80
2019-05-20T09:33:38.228Z,15.90
2019-05-20T09:34:43.814Z,15.80
2019-05-20T09:35:30.162Z,15.80
2019-05-20T09:36:16.275Z,15.80
2019-05-20T09:37:02.246Z,15.90
2019-05-20T09:37:48.661Z,15.90
2019-05-20T09:38:37.045Z,15.90
2019-05-20T09:39:23.065Z,15.90
2019-05-20T09:40:09.669Z,15.90
2019-05-20T09:40:55.646Z,15.90
2019-05-20T09:41:42.021Z,15.90
2019-05-20T09:42:28.037Z,16.00
2019-05-20T09:43:13.947Z,15.90
2019-05-20T09:44:00.084Z,15.90
2019-05-20T09:44:46.368Z,15.90
2019-05-20T09:45:32.484Z,15.90
2019-05-20T09:46:18.503Z,15.90
2019-05-20T09:47:04.422Z,15.80
2019-05-20T09:47:51.555Z,15.90
2019-05-20T09:48:38.070Z,15.80
2019-05-20T09:49:24.518Z,15.80
2019-05-20T09:50:11.090Z,15.80
2019-05-20T09:50:57.348Z,15.90
2019-05-20T09:51:43.478Z,15.90
2019-05-20T09:52:30.027Z,15.80
2019-05-20T09:53:16.513Z,15.70
2019-05-20T09:54:03.398Z,15.70
2019-05-20T09:54:49.895Z,15.70
2019-05-20T09:55:36.135Z,15.80
2019-05-20T09:56:22.696Z,15.80
2019-05-20T09:57:08.935Z,15.80
2019-05-20T09:57:55.376Z,15.80
2019-05-20T09:58:41.810Z,15.90